sensor_id;sensor_type;location;lat;lon;timestamp;pressure;altitude;pressure_sealevel;temperature;humidity
37206;BME280;23099;42.636;23.198;2023-06-10T00:00:03;91687.50;;;16.43;100.00
37206;BME280;23099;42.636;23.198;2023-06-10T00:02:31;91688.28;;;16.40;100.00
37206;BME280;23099;42.636;23.198;2023-06-10T00:04:58;91693.69;;;16.40;100.00
37206;BME280;23099;42.636;23.198;2023-06-10T00:07:24;91700.59;;;16.41;100.00
37206;BME280;23099;42.636;23.198;2023-06-10T00:09:51;91693.34;;;16.35;100.00
37206;BME280;23099;42.636;23.198;2023-06-10T00:12:18;91709.22;;;16.29;100.00
37206;BME280;23099;42.636;23.198;2023-06-10T00:14:45;91700.78;;;16.27;100.00
37206;BME280;23099;42.636;23.198;2023-06-10T00:17:15;91697.34;;;16.23;100.00
37206;BME280;23099;42.636;23.198;2023-06-10T00:19:41;91691.22;;;16.19;100.00
37206;BME280;23099;42.636;23.198;2023-06-10T00:22:09;91695.03;;;16.21;100.00
37206;BME280;23099;42.636;23.198;2023-06-10T00:24:35;91688.91;;;16.17;100.00
37206;BME280;23099;42.636;23.198;2023-06-10T00:27:03;91693.47;;;16.24;100.00
37206;BME280;23099;42.636;23.198;2023-06-10T00:29:30;91703.09;;;16.25;100.00
37206;BME280;23099;42.636;23.198;2023-06-10T00:31:57;91705.44;;;16.23;100.00
37206;BME280;23099;42.636;23.198;2023-06-10T00:34:25;91695.03;;;16.21;100.00
37206;BME280;23099;42.636;23.198;2023-06-10T00:36:51;91695.06;;;16.18;100.00
37206;BME280;23099;42.636;23.198;2023-06-10T00:39:18;91699.38;;;16.15;100.00
37206;BME280;23099;42.636;23.198;2023-06-10T00:41:45;91693.16;;;16.18;100.00
37206;BME280;23099;42.636;23.198;2023-06-10T00:44:11;91692.75;;;16.20;100.00
37206;BME280;23099;42.636;23.198;2023-06-10T00:46:38;91696.56;;;16.22;100.00
37206;BME280;23099;42.636;23.198;2023-06-10T00:49:05;91693.50;;;16.20;100.00
37206;BME280;23099;42.636;23.198;2023-06-10T00:51:33;91695.06;;;16.18;100.00
37206;BME280;23099;42.636;23.198;2023-06-10T00:54:01;91690.09;;;16.16;100.00
37206;BME280;23099;42.636;23.198;2023-06-10T00:56:29;91698.91;;;16.20;100.00
37206;BME280;23099;42.636;23.198;2023-06-10T00:58:56;91695.44;;;16.20;100.00
37206;BME280;23099;42.636;23.198;2023-06-10T01:01:23;91691.94;;;16.23;100.00
37206;BME280;23099;42.636;23.198;2023-06-10T01:03:50;91690.41;;;16.22;100.00
37206;BME280;23099;42.636;23.198;2023-06-10T01:06:27;91694.25;;;16.24;100.00
37206;BME280;23099;42.636;23.198;2023-06-10T01:09:03;91702.38;;;16.21;100.00
37206;BME280;23099;42.636;23.198;2023-06-10T01:11:36;91705.84;;;16.21;100.00
37206;BME280;23099;42.636;23.198;2023-06-10T01:14:05;91702.00;;;16.19;100.00
37206;BME280;23099;42.636;23.198;2023-06-10T01:16:33;91695.44;;;16.20;100.00
37206;BME280;23099;42.636;23.198;2023-06-10T01:19:01;91695.13;;;16.14;100.00
37206;BME280;23099;42.636;23.198;2023-06-10T01:21:29;91700.88;;;16.16;100.00
37206;BME280;23099;42.636;23.198;2023-06-10T01:23:56;91705.06;;;16.21;100.00
37206;BME280;23099;42.636;23.198;2023-06-10T01:26:28;91695.47;;;16.16;100.00
37206;BME280;23099;42.636;23.198;2023-06-10T01:28:59;91700.06;;;16.19;100.00
37206;BME280;23099;42.636;23.198;2023-06-10T01:31:35;91697.75;;;16.21;100.00
37206;BME280;23099;42.636;23.198;2023-06-10T01:34:12;91693.13;;;16.22;100.00
37206;BME280;23099;42.636;23.198;2023-06-10T01:36:44;91690.38;;;16.25;100.00
37206;BME280;23099;42.636;23.198;2023-06-10T01:39:14;91694.25;;;16.24;100.00
37206;BME280;23099;42.636;23.198;2023-06-10T01:41:42;91696.56;;;16.22;100.00
37206;BME280;23099;42.636;23.198;2023-06-10T01:44:09;91688.97;;;16.14;100.00
37206;BME280;23099;42.636;23.198;2023-06-10T01:46:36;91699.69;;;16.17;100.00
37206;BME280;23099;42.636;23.198;2023-06-10T01:49:02;91697.78;;;16.18;100.00
37206;BME280;23099;42.636;23.198;2023-06-10T01:51:29;91696.66;;;16.15;100.00
37206;BME280;23099;42.636;23.198;2023-06-10T01:53:58;91695.47;;;16.16;100.00
37206;BME280;23099;42.636;23.198;2023-06-10T01:56:25;91697.47;;;16.12;100.00
37206;BME280;23099;42.636;23.198;2023-06-10T01:58:51;91688.22;;;16.13;100.00
37206;BME280;23099;42.636;23.198;2023-06-10T02:01:20;91689.03;;;16.07;100.00
37206;BME280;23099;42.636;23.198;2023-06-10T02:03:47;91692.88;;;16.09;100.00
37206;BME280;23099;42.636;23.198;2023-06-10T02:06:13;91683.66;;;16.07;100.00
37206;BME280;23099;42.636;23.198;2023-06-10T02:08:40;91676.00;;;16.02;100.00
37206;BME280;23099;42.636;23.198;2023-06-10T02:11:08;91685.22;;;16.04;100.00
37206;BME280;23099;42.636;23.198;2023-06-10T02:13:35;91677.94;;;16.01;100.00
37206;BME280;23099;42.636;23.198;2023-06-10T02:16:02;91677.53;;;16.03;100.00
37206;BME280;23099;42.636;23.198;2023-06-10T02:18:28;91676.75;;;16.02;100.00
37206;BME280;23099;42.636;23.198;2023-06-10T02:20:55;91678.25;;;16.07;100.00
37206;BME280;23099;42.636;23.198;2023-06-10T02:23:22;91681.69;;;16.11;100.00
37206;BME280;23099;42.636;23.198;2023-06-10T02:25:49;91679.00;;;16.11;100.00
37206;BME280;23099;42.636;23.198;2023-06-10T02:28:17;91679.38;;;16.09;100.00
37206;BME280;23099;42.636;23.198;2023-06-10T02:30:44;91679.81;;;16.04;100.00
37206;BME280;23099;42.636;23.198;2023-06-10T02:33:12;91683.28;;;16.05;100.00
37206;BME280;23099;42.636;23.198;2023-06-10T02:35:39;91675.56;;;16.07;100.00
37206;BME280;23099;42.636;23.198;2023-06-10T02:38:06;91674.41;;;16.08;100.00
37206;BME280;23099;42.636;23.198;2023-06-10T02:40:33;91665.19;;;16.05;100.00
37206;BME280;23099;42.636;23.198;2023-06-10T02:42:59;91668.25;;;16.07;100.00
37206;BME280;23099;42.636;23.198;2023-06-10T02:45:27;91663.63;;;16.08;100.00
37206;BME280;23099;42.636;23.198;2023-06-10T02:47:54;91665.53;;;16.07;100.00
37206;BME280;23099;42.636;23.198;2023-06-10T02:50:21;91662.44;;;16.09;100.00
37206;BME280;23099;42.636;23.198;2023-06-10T02:52:48;91663.97;;;16.10;100.00
37206;BME280;23099;42.636;23.198;2023-06-10T02:55:15;91656.66;;;16.10;100.00
37206;BME280;23099;42.636;23.198;2023-06-10T02:57:42;91661.69;;;16.08;100.00
37206;BME280;23099;42.636;23.198;2023-06-10T03:00:09;91650.25;;;15.97;100.00
37206;BME280;23099;42.636;23.198;2023-06-10T03:02:38;91657.63;;;15.93;100.00
37206;BME280;23099;42.636;23.198;2023-06-10T03:05:05;91663.38;;;15.95;100.00
37206;BME280;23099;42.636;23.198;2023-06-10T03:07:35;91669.13;;;15.97;100.00
37206;BME280;23099;42.636;23.198;2023-06-10T03:10:03;91662.22;;;15.96;100.00
37206;BME280;23099;42.636;23.198;2023-06-10T03:12:29;91674.53;;;15.97;100.00
37206;BME280;23099;42.636;23.198;2023-06-10T03:14:56;91669.16;;;15.94;100.00
37206;BME280;23099;42.636;23.198;2023-06-10T03:17:23;91665.72;;;15.89;100.00
37206;BME280;23099;42.636;23.198;2023-06-10T03:19:51;91667.34;;;15.83;100.00
37206;BME280;23099;42.636;23.198;2023-06-10T03:22:18;91681.22;;;15.82;100.00
37206;BME280;23099;42.636;23.198;2023-06-10T03:24:45;91682.75;;;15.83;100.00
37206;BME280;23099;42.636;23.198;2023-06-10T03:27:15;91688.13;;;15.83;100.00
37206;BME280;23099;42.636;23.198;2023-06-10T03:29:43;91695.06;;;15.84;100.00
37206;BME280;23099;42.636;23.198;2023-06-10T03:32:09;91688.84;;;15.87;100.00
37206;BME280;23099;42.636;23.198;2023-06-10T03:34:36;91687.28;;;15.89;100.00
37206;BME280;23099;42.636;23.198;2023-06-10T03:37:05;91692.31;;;15.87;100.00
37206;BME280;23099;42.636;23.198;2023-06-10T03:39:32;91682.66;;;15.90;100.00
37206;BME280;23099;42.636;23.198;2023-06-10T03:41:58;91693.03;;;15.91;100.00
37206;BME280;23099;42.636;23.198;2023-06-10T03:44:25;91675.69;;;15.96;100.00
37206;BME280;23099;42.636;23.198;2023-06-10T03:46:53;91683.75;;;16.00;100.00
37206;BME280;23099;42.636;23.198;2023-06-10T03:49:19;91679.88;;;16.01;100.00
37206;BME280;23099;42.636;23.198;2023-06-10T03:51:47;91672.88;;;16.07;100.00
37206;BME280;23099;42.636;23.198;2023-06-10T03:54:15;91669.03;;;16.04;100.00
37206;BME280;23099;42.636;23.198;2023-06-10T03:56:41;91677.09;;;16.08;100.00
37206;BME280;23099;42.636;23.198;2023-06-10T03:59:08;91665.56;;;16.04;100.00
37206;BME280;23099;42.636;23.198;2023-06-10T04:01:35;91662.94;;;16.00;100.00
37206;BME280;23099;42.636;23.198;2023-06-10T04:04:02;91662.50;;;16.02;100.00
37206;BME280;23099;42.636;23.198;2023-06-10T04:06:29;91667.06;;;16.08;100.00
37206;BME280;23099;42.636;23.198;2023-06-10T04:08:57;91662.06;;;16.10;100.00
37206;BME280;23099;42.636;23.198;2023-06-10T04:11:25;91657.81;;;16.09;100.00
37206;BME280;23099;42.636;23.198;2023-06-10T04:13:52;91671.97;;;16.17;100.00
37206;BME280;23099;42.636;23.198;2023-06-10T04:16:18;91660.75;;;16.22;100.00
37206;BME280;23099;42.636;23.198;2023-06-10T04:18:46;91661.88;;;16.24;100.00
37206;BME280;23099;42.636;23.198;2023-06-10T04:21:13;91658.78;;;16.26;100.00
37206;BME280;23099;42.636;23.198;2023-06-10T04:23:40;91657.56;;;16.31;100.00
37206;BME280;23099;42.636;23.198;2023-06-10T04:26:07;91659.47;;;16.34;100.00
37206;BME280;23099;42.636;23.198;2023-06-10T04:28:35;91659.06;;;16.35;100.00
37206;BME280;23099;42.636;23.198;2023-06-10T04:31:01;91666.34;;;16.38;100.00
37206;BME280;23099;42.636;23.198;2023-06-10T04:33:29;91665.94;;;16.40;100.00
37206;BME280;23099;42.636;23.198;2023-06-10T04:35:56;91658.22;;;16.42;100.00
37206;BME280;23099;42.636;23.198;2023-06-10T04:38:23;91659.69;;;16.46;100.00
37206;BME280;23099;42.636;23.198;2023-06-10T04:40:49;91659.28;;;16.48;100.00
37206;BME280;23099;42.636;23.198;2023-06-10T04:43:16;91659.66;;;16.50;100.00
37206;BME280;23099;42.636;23.198;2023-06-10T04:45:44;91663.16;;;16.47;100.00
37206;BME280;23099;42.636;23.198;2023-06-10T04:48:11;91660.06;;;16.48;100.00
37206;BME280;23099;42.636;23.198;2023-06-10T04:50:38;91660.06;;;16.48;100.00
37206;BME280;23099;42.636;23.198;2023-06-10T04:53:05;91666.69;;;16.44;100.00
37206;BME280;23099;42.636;23.198;2023-06-10T04:55:32;91665.53;;;16.41;100.00
37206;BME280;23099;42.636;23.198;2023-06-10T04:57:59;91650.53;;;16.40;100.00
37206;BME280;23099;42.636;23.198;2023-06-10T05:00:26;91659.38;;;16.41;100.00
37206;BME280;23099;42.636;23.198;2023-06-10T05:02:54;91661.72;;;16.39;100.00
37206;BME280;23099;42.636;23.198;2023-06-10T05:05:21;91662.03;;;16.44;100.00
37206;BME280;23099;42.636;23.198;2023-06-10T05:07:48;91658.22;;;16.42;100.00
37206;BME280;23099;42.636;23.198;2023-06-10T05:10:14;91657.84;;;16.40;100.00
37206;BME280;23099;42.636;23.198;2023-06-10T05:12:41;91660.50;;;16.43;100.00
37206;BME280;23099;42.636;23.198;2023-06-10T05:15:09;91665.44;;;16.48;100.00
37206;BME280;23099;42.636;23.198;2023-06-10T05:17:36;91659.25;;;16.51;100.00
37206;BME280;23099;42.636;23.198;2023-06-10T05:20:05;91651.59;;;16.46;100.00
37206;BME280;23099;42.636;23.198;2023-06-10T05:22:31;91672.34;;;16.53;100.00
37206;BME280;23099;42.636;23.198;2023-06-10T05:24:59;91667.25;;;16.58;100.00
37206;BME280;23099;42.636;23.198;2023-06-10T05:27:26;91668.00;;;16.63;100.00
37206;BME280;23099;42.636;23.198;2023-06-10T05:29:53;91674.88;;;16.67;100.00
37206;BME280;23099;42.636;23.198;2023-06-10T05:32:19;91671.75;;;16.72;100.00
37206;BME280;23099;42.636;23.198;2023-06-10T05:34:46;91682.41;;;16.79;100.00
37206;BME280;23099;42.636;23.198;2023-06-10T05:37:14;91682.75;;;16.85;100.00
37206;BME280;23099;42.636;23.198;2023-06-10T05:39:41;91680.34;;;16.90;100.00
37206;BME280;23099;42.636;23.198;2023-06-10T05:42:08;91684.94;;;16.93;100.00
37206;BME280;23099;42.636;23.198;2023-06-10T05:44:35;91677.94;;;16.96;100.00
37206;BME280;23099;42.636;23.198;2023-06-10T05:47:02;91685.53;;;17.05;100.00
37206;BME280;23099;42.636;23.198;2023-06-10T05:49:29;91688.56;;;17.10;100.00
37206;BME280;23099;42.636;23.198;2023-06-10T05:51:55;91684.63;;;17.15;100.00
37206;BME280;23099;42.636;23.198;2023-06-10T05:54:25;91690.38;;;17.17;100.00
37206;BME280;23099;42.636;23.198;2023-06-10T05:56:52;91690.03;;;17.15;100.00
37206;BME280;23099;42.636;23.198;2023-06-10T05:59:18;91689.97;;;17.18;100.00
37206;BME280;23099;42.636;23.198;2023-06-10T06:01:45;91695.38;;;17.18;100.00
37206;BME280;23099;42.636;23.198;2023-06-10T06:04:12;91696.84;;;17.23;100.00
37206;BME280;23099;42.636;23.198;2023-06-10T06:06:39;91698.34;;;17.27;100.00
37206;BME280;23099;42.636;23.198;2023-06-10T06:09:06;91694.09;;;17.26;100.00
37206;BME280;23099;42.636;23.198;2023-06-10T06:11:34;91688.53;;;17.37;100.00
37206;BME280;23099;42.636;23.198;2023-06-10T06:14:01;91682.94;;;17.48;100.00
37206;BME280;23099;42.636;23.198;2023-06-10T06:16:29;91692.50;;;17.56;100.00
37206;BME280;23099;42.636;23.198;2023-06-10T06:18:56;91678.22;;;17.55;100.00
37206;BME280;23099;42.636;23.198;2023-06-10T06:21:22;91684.06;;;17.50;100.00
37206;BME280;23099;42.636;23.198;2023-06-10T06:23:49;91689.78;;;17.56;100.00
37206;BME280;23099;42.636;23.198;2023-06-10T06:26:16;91690.56;;;17.56;100.00
37206;BME280;23099;42.636;23.198;2023-06-10T06:28:44;91687.75;;;17.63;100.00
37206;BME280;23099;42.636;23.198;2023-06-10T06:31:11;91688.81;;;17.70;100.00
37206;BME280;23099;42.636;23.198;2023-06-10T06:33:37;91694.03;;;17.80;100.00
37206;BME280;23099;42.636;23.198;2023-06-10T06:36:04;91693.16;;;17.87;100.00
37206;BME280;23099;42.636;23.198;2023-06-10T06:38:31;91684.16;;;17.93;100.00
37206;BME280;23099;42.636;23.198;2023-06-10T06:40:58;91679.00;;;18.02;100.00
37206;BME280;23099;42.636;23.198;2023-06-10T06:43:28;91685.03;;;18.10;100.00
37206;BME280;23099;42.636;23.198;2023-06-10T06:45:56;91681.34;;;18.20;100.00
37206;BME280;23099;42.636;23.198;2023-06-10T06:48:23;91674.34;;;18.23;100.00
37206;BME280;23099;42.636;23.198;2023-06-10T06:50:50;91677.00;;;18.26;100.00
37206;BME280;23099;42.636;23.198;2023-06-10T06:53:16;91674.91;;;18.34;100.00
37206;BME280;23099;42.636;23.198;2023-06-10T06:55:43;91676.44;;;18.35;100.00
37206;BME280;23099;42.636;23.198;2023-06-10T06:58:10;91674.84;;;18.37;100.00
37206;BME280;23099;42.636;23.198;2023-06-10T07:00:36;91680.03;;;18.48;100.00
37206;BME280;23099;42.636;23.198;2023-06-10T07:03:04;91681.84;;;18.55;100.00
37206;BME280;23099;42.636;23.198;2023-06-10T07:05:31;91676.75;;;18.60;100.00
37206;BME280;23099;42.636;23.198;2023-06-10T07:07:58;91677.50;;;18.61;100.00
37206;BME280;23099;42.636;23.198;2023-06-10T07:10:25;91668.94;;;18.62;100.00
37206;BME280;23099;42.636;23.198;2023-06-10T07:12:52;91671.94;;;18.68;100.00
37206;BME280;23099;42.636;23.198;2023-06-10T07:15:19;91670.81;;;18.65;100.00
37206;BME280;23099;42.636;23.198;2023-06-10T07:17:46;91670.81;;;18.65;99.39
37206;BME280;23099;42.636;23.198;2023-06-10T07:20:14;91659.66;;;18.63;100.00
37206;BME280;23099;42.636;23.198;2023-06-10T07:22:41;91656.94;;;18.83;99.33
37206;BME280;23099;42.636;23.198;2023-06-10T07:25:08;91663.22;;;18.96;98.88
37206;BME280;23099;42.636;23.198;2023-06-10T07:27:35;91667.44;;;18.97;95.33
37206;BME280;23099;42.636;23.198;2023-06-10T07:30:02;91670.50;;;18.99;95.99
37206;BME280;23099;42.636;23.198;2023-06-10T07:32:30;91668.81;;;19.05;95.60
37206;BME280;23099;42.636;23.198;2023-06-10T07:34:56;91662.06;;;19.14;96.85
37206;BME280;23099;42.636;23.198;2023-06-10T07:37:24;91669.09;;;19.11;95.48
37206;BME280;23099;42.636;23.198;2023-06-10T07:39:51;91665.53;;;19.14;94.96
37206;BME280;23099;42.636;23.198;2023-06-10T07:42:18;91665.34;;;19.21;95.80
37206;BME280;23099;42.636;23.198;2023-06-10T07:44:45;91664.19;;;19.22;95.39
37206;BME280;23099;42.636;23.198;2023-06-10T07:47:11;91673.06;;;19.23;93.68
37206;BME280;23099;42.636;23.198;2023-06-10T07:49:38;91676.47;;;19.27;89.21
37206;BME280;23099;42.636;23.198;2023-06-10T07:52:07;91677.22;;;19.27;85.33
37206;BME280;23099;42.636;23.198;2023-06-10T07:54:35;91674.53;;;19.43;88.62
37206;BME280;23099;42.636;23.198;2023-06-10T07:57:02;91670.84;;;19.54;88.65
37206;BME280;23099;42.636;23.198;2023-06-10T07:59:28;91675.06;;;19.55;90.09
37206;BME280;23099;42.636;23.198;2023-06-10T08:01:55;91666.78;;;19.62;91.04
37206;BME280;23099;42.636;23.198;2023-06-10T08:04:22;91681.25;;;19.55;85.89
37206;BME280;23099;42.636;23.198;2023-06-10T08:06:48;91681.25;;;19.55;87.97
37206;BME280;23099;42.636;23.198;2023-06-10T08:09:16;91674.47;;;19.63;87.73
37206;BME280;23099;42.636;23.198;2023-06-10T08:11:46;91673.19;;;19.68;88.12
37206;BME280;23099;42.636;23.198;2023-06-10T08:14:13;91673.34;;;19.77;87.91
37206;BME280;23099;42.636;23.198;2023-06-10T08:16:39;91669.72;;;19.84;85.25
37206;BME280;23099;42.636;23.198;2023-06-10T08:19:06;91663.25;;;19.94;82.61
37206;BME280;23099;42.636;23.198;2023-06-10T08:21:34;91665.13;;;19.97;84.24
37206;BME280;23099;42.636;23.198;2023-06-10T08:24:01;91663.25;;;19.94;80.79
37206;BME280;23099;42.636;23.198;2023-06-10T08:26:28;91650.03;;;19.96;83.76
37206;BME280;23099;42.636;23.198;2023-06-10T08:28:56;91650.84;;;20.09;82.67
37206;BME280;23099;42.636;23.198;2023-06-10T08:31:23;91650.00;;;20.12;81.16
37206;BME280;23099;42.636;23.198;2023-06-10T08:33:50;91649.16;;;20.15;80.16
37206;BME280;23099;42.636;23.198;2023-06-10T08:36:17;91644.53;;;19.99;78.03
37206;BME280;23099;42.636;23.198;2023-06-10T08:38:43;91658.66;;;20.07;79.00
37206;BME280;23099;42.636;23.198;2023-06-10T08:41:12;91655.44;;;20.12;77.28
37206;BME280;23099;42.636;23.198;2023-06-10T08:43:43;91656.09;;;20.16;78.70
37206;BME280;23099;42.636;23.198;2023-06-10T08:46:14;91654.38;;;20.22;78.06
37206;BME280;23099;42.636;23.198;2023-06-10T08:48:43;91653.19;;;20.23;80.30
37206;BME280;23099;42.636;23.198;2023-06-10T08:51:11;91643.78;;;20.28;78.91
37206;BME280;23099;42.636;23.198;2023-06-10T08:53:43;91634.88;;;20.27;78.14
37206;BME280;23099;42.636;23.198;2023-06-10T08:56:13;91635.69;;;20.40;80.34
37206;BME280;23099;42.636;23.198;2023-06-10T08:58:41;91637.72;;;20.36;78.43
37206;BME280;23099;42.636;23.198;2023-06-10T09:01:08;91625.25;;;20.39;79.26
37206;BME280;23099;42.636;23.198;2023-06-10T09:03:37;91635.94;;;20.46;76.80
37206;BME280;23099;42.636;23.198;2023-06-10T09:06:05;91631.47;;;20.52;75.80
37206;BME280;23099;42.636;23.198;2023-06-10T09:08:33;91632.16;;;20.56;78.33
37206;BME280;23099;42.636;23.198;2023-06-10T09:11:00;91623.56;;;20.58;77.07
37206;BME280;23099;42.636;23.198;2023-06-10T09:13:27;91631.22;;;20.75;77.49
37206;BME280;23099;42.636;23.198;2023-06-10T09:15:53;91634.38;;;20.87;76.82
37206;BME280;23099;42.636;23.198;2023-06-10T09:18:22;91628.19;;;20.86;74.04
37206;BME280;23099;42.636;23.198;2023-06-10T09:20:50;91631.78;;;20.96;71.95
37206;BME280;23099;42.636;23.198;2023-06-10T09:23:17;91627.31;;;21.02;72.65
37206;BME280;23099;42.636;23.198;2023-06-10T09:25:43;91620.03;;;21.11;73.69
37206;BME280;23099;42.636;23.198;2023-06-10T09:28:13;91623.53;;;21.25;73.94
37206;BME280;23099;42.636;23.198;2023-06-10T09:30:40;91619.19;;;21.40;73.60
37206;BME280;23099;42.636;23.198;2023-06-10T09:33:10;91619.31;;;21.49;74.83
37206;BME280;23099;42.636;23.198;2023-06-10T09:35:45;91620.56;;;21.57;73.83
37206;BME280;23099;42.636;23.198;2023-06-10T09:38:14;91619.72;;;21.60;75.43
37206;BME280;23099;42.636;23.198;2023-06-10T09:40:48;91618.50;;;21.61;71.69
37206;BME280;23099;42.636;23.198;2023-06-10T09:43:15;91619.47;;;21.67;72.65
37206;BME280;23099;42.636;23.198;2023-06-10T09:45:42;91614.00;;;21.80;71.99
37206;BME280;23099;42.636;23.198;2023-06-10T09:48:09;91620.06;;;21.84;72.90
37206;BME280;23099;42.636;23.198;2023-06-10T09:50:42;91608.00;;;21.85;69.71
37206;BME280;23099;42.636;23.198;2023-06-10T09:53:09;91611.78;;;22.00;69.15
37206;BME280;23099;42.636;23.198;2023-06-10T09:55:39;91602.16;;;22.08;69.45
37206;BME280;23099;42.636;23.198;2023-06-10T09:58:06;91604.28;;;22.26;70.01
37206;BME280;23099;42.636;23.198;2023-06-10T10:00:33;91602.06;;;22.34;69.50
37206;BME280;23099;42.636;23.198;2023-06-10T10:03:00;91598.09;;;22.47;68.37
37206;BME280;23099;42.636;23.198;2023-06-10T10:05:27;91600.84;;;22.56;69.06
37206;BME280;23099;42.636;23.198;2023-06-10T10:07:55;91606.50;;;22.62;67.08
37206;BME280;23099;42.636;23.198;2023-06-10T10:10:22;91599.25;;;22.68;63.71
37206;BME280;23099;42.636;23.198;2023-06-10T10:12:52;91589.00;;;22.72;64.24
37206;BME280;23099;42.636;23.198;2023-06-10T10:15:21;91589.06;;;22.81;64.17
37206;BME280;23099;42.636;23.198;2023-06-10T10:17:52;91582.16;;;22.89;66.17
37206;BME280;23099;42.636;23.198;2023-06-10T10:20:26;91572.03;;;22.99;66.05
37206;BME280;23099;42.636;23.198;2023-06-10T10:22:56;91584.22;;;23.16;63.74
37206;BME280;23099;42.636;23.198;2023-06-10T10:25:27;91579.25;;;23.24;61.88
37206;BME280;23099;42.636;23.198;2023-06-10T10:27:59;91592.94;;;23.42;60.57
37206;BME280;23099;42.636;23.198;2023-06-10T10:30:30;91582.13;;;23.60;59.77
37206;BME280;23099;42.636;23.198;2023-06-10T10:32:59;91585.34;;;23.77;60.12
37206;BME280;23099;42.636;23.198;2023-06-10T10:35:26;91573.78;;;23.82;59.06
37206;BME280;23099;42.636;23.198;2023-06-10T10:37:54;91579.56;;;24.12;57.31
37206;BME280;23099;42.636;23.198;2023-06-10T10:40:22;91576.28;;;24.35;58.78
37206;BME280;23099;42.636;23.198;2023-06-10T10:42:49;91555.47;;;24.28;58.89
37206;BME280;23099;42.636;23.198;2023-06-10T10:45:18;91564.88;;;24.46;58.84
37206;BME280;23099;42.636;23.198;2023-06-10T10:47:45;91567.41;;;24.77;58.80
37206;BME280;23099;42.636;23.198;2023-06-10T10:50:14;91557.66;;;24.85;55.62
37206;BME280;23099;42.636;23.198;2023-06-10T10:52:53;91555.75;;;24.58;53.85
37206;BME280;23099;42.636;23.198;2023-06-10T10:55:20;91551.38;;;24.33;54.75
37206;BME280;23099;42.636;23.198;2023-06-10T10:57:54;91564.25;;;24.14;53.69
37206;BME280;23099;42.636;23.198;2023-06-10T11:00:27;91565.34;;;24.08;55.19
37206;BME280;23099;42.636;23.198;2023-06-10T11:02:58;91563.22;;;23.93;55.97
37206;BME280;23099;42.636;23.198;2023-06-10T11:05:38;91557.41;;;23.82;56.83
37206;BME280;23099;42.636;23.198;2023-06-10T11:08:07;91556.66;;;23.82;58.89
37206;BME280;23099;42.636;23.198;2023-06-10T11:10:35;91559.09;;;23.71;57.71
37206;BME280;23099;42.636;23.198;2023-06-10T11:13:06;91559.22;;;23.67;59.53
37206;BME280;23099;42.636;23.198;2023-06-10T11:15:38;91546.19;;;23.62;55.71
37206;BME280;23099;42.636;23.198;2023-06-10T11:18:10;91541.34;;;23.75;53.08
37206;BME280;23099;42.636;23.198;2023-06-10T11:20:44;91541.22;;;24.15;60.56
37206;BME280;23099;42.636;23.198;2023-06-10T11:23:11;91537.09;;;24.47;55.76
37206;BME280;23099;42.636;23.198;2023-06-10T11:25:50;91537.28;;;24.86;56.33
37206;BME280;23099;42.636;23.198;2023-06-10T11:28:18;91533.19;;;24.90;51.77
37206;BME280;23099;42.636;23.198;2023-06-10T11:30:46;91517.97;;;25.08;55.88
37206;BME280;23099;42.636;23.198;2023-06-10T11:33:14;91517.97;;;25.31;53.74
37206;BME280;23099;42.636;23.198;2023-06-10T11:35:42;91515.09;;;25.59;51.71
37206;BME280;23099;42.636;23.198;2023-06-10T11:38:09;91502.22;;;25.74;49.74
37206;BME280;23099;42.636;23.198;2023-06-10T11:40:36;91502.41;;;25.70;50.08
37206;BME280;23099;42.636;23.198;2023-06-10T11:43:04;91513.84;;;25.60;50.94
37206;BME280;23099;42.636;23.198;2023-06-10T11:45:30;91511.13;;;25.36;50.71
37206;BME280;23099;42.636;23.198;2023-06-10T11:47:59;91517.91;;;25.17;53.55
37206;BME280;23099;42.636;23.198;2023-06-10T11:50:30;91513.06;;;25.12;52.09
37206;BME280;23099;42.636;23.198;2023-06-10T11:52:57;91509.91;;;25.04;54.13
37206;BME280;23099;42.636;23.198;2023-06-10T11:55:24;91517.81;;;25.02;56.02
37206;BME280;23099;42.636;23.198;2023-06-10T11:57:51;91511.31;;;24.90;57.52
37206;BME280;23099;42.636;23.198;2023-06-10T12:00:23;91512.38;;;24.84;56.07
37206;BME280;23099;42.636;23.198;2023-06-10T12:02:55;91509.69;;;24.75;51.01
37206;BME280;23099;42.636;23.198;2023-06-10T12:05:24;91508.34;;;24.70;52.46
37206;BME280;23099;42.636;23.198;2023-06-10T12:08:09;91505.19;;;24.53;52.92
37206;BME280;23099;42.636;23.198;2023-06-10T12:10:40;91505.38;;;24.50;55.78
37206;BME280;23099;42.636;23.198;2023-06-10T12:13:07;91513.72;;;24.46;56.75
37206;BME280;23099;42.636;23.198;2023-06-10T12:15:34;91512.84;;;24.31;55.22
37206;BME280;23099;42.636;23.198;2023-06-10T12:18:01;91514.06;;;24.30;56.70
37206;BME280;23099;42.636;23.198;2023-06-10T12:20:30;91508.59;;;24.21;54.52
37206;BME280;23099;42.636;23.198;2023-06-10T12:22:59;91501.47;;;23.96;53.81
37206;BME280;23099;42.636;23.198;2023-06-10T12:25:27;91504.69;;;23.94;58.64
37206;BME280;23099;42.636;23.198;2023-06-10T12:27:55;91495.88;;;23.90;59.38
37206;BME280;23099;42.636;23.198;2023-06-10T12:30:24;91500.72;;;23.86;60.61
37206;BME280;23099;42.636;23.198;2023-06-10T12:32:52;91491.47;;;23.75;59.15
37206;BME280;23099;42.636;23.198;2023-06-10T12:35:20;91488.44;;;23.73;57.90
37206;BME280;23099;42.636;23.198;2023-06-10T12:37:56;91495.56;;;23.70;59.86
37206;BME280;23099;42.636;23.198;2023-06-10T12:40:29;91490.72;;;23.74;60.77
37206;BME280;23099;42.636;23.198;2023-06-10T12:42:57;91495.25;;;23.68;58.75
37206;BME280;23099;42.636;23.198;2023-06-10T12:45:27;91497.09;;;23.62;57.40
37206;BME280;23099;42.636;23.198;2023-06-10T12:48:04;91494.94;;;23.66;59.73